Time,TemperatureF,DewpointF,PressureIn,WindDirection,WindDirectionDegrees,WindSpeedMPH,WindSpeedGustMPH,Humidity,HourlyPrecipIn,Conditions,Clouds,dailyrainin,SoftwareType,DateUTC
2013-03-06 00:16:00,32.5,29.3,30.05,East,101,6.0,6.0,88,0.00,,,0.00,Wunderground v.1.15,2013-03-06 05:16:00,
2013-03-06 00:26:00,32.5,29.3,30.05,East,100,5.0,5.0,88,0.00,,,0.00,Wunderground v.1.15,2013-03-06 05:26:00,
2013-03-06 01:06:00,31.8,29.2,30.06,ESE,115,6.0,6.0,90,0.00,,,0.00,Wunderground v.1.15,2013-03-06 06:06:00,
2013-03-06 01:16:00,31.9,29.0,30.06,East,99,8.0,11.0,89,0.00,,,0.00,Wunderground v.1.15,2013-03-06 06:16:00,
2013-03-06 01:36:00,31.9,29.0,30.06,East,94,7.0,7.0,89,0.00,,,0.00,Wunderground v.1.15,2013-03-06 06:36:00,
2013-03-06 01:46:00,31.8,28.9,30.07,ESE,102,7.0,9.0,89,0.00,,,0.00,Wunderground v.1.15,2013-03-06 06:46:00,
2013-03-06 02:06:00,31.5,29.2,30.07,East,84,6.0,6.0,91,0.00,,,0.00,Wunderground v.1.15,2013-03-06 07:06:00,
2013-03-06 02:16:00,31.5,29.2,30.07,ESE,112,8.0,10.0,91,0.00,,,0.00,Wunderground v.1.15,2013-03-06 07:16:00,
2013-03-06 02:26:00,31.8,28.7,30.07,ESE,103,10.0,10.0,88,0.00,,,0.00,Wunderground v.1.15,2013-03-06 07:26:00,
2013-03-06 02:46:00,31.6,28.7,30.07,East,99,7.0,7.0,89,0.00,,,0.00,Wunderground v.1.15,2013-03-06 07:46:00,
2013-03-06 02:56:00,31.6,28.5,30.07,ESE,115,9.0,9.0,88,0.00,,,0.00,Wunderground v.1.15,2013-03-06 07:56:00,
2013-03-06 03:36:00,31.8,28.4,30.07,East,87,11.0,13.0,87,0.00,,,0.00,Wunderground v.1.15,2013-03-06 08:36:00,
2013-03-06 03:46:00,31.9,28.5,30.08,East,97,11.0,11.0,87,0.00,,,0.00,Wunderground v.1.15,2013-03-06 08:46:00,
2013-03-06 03:56:00,31.8,28.7,30.08,East,98,10.0,10.0,88,0.00,,,0.00,Wunderground v.1.15,2013-03-06 08:56:00,
2013-03-06 04:36:00,31.3,28.7,30.08,ESE,109,8.0,12.0,90,0.00,,,0.00,Wunderground v.1.15,2013-03-06 09:36:00,
2013-03-06 04:46:00,31.3,28.7,30.09,East,94,9.0,9.0,90,0.00,,,0.00,Wunderground v.1.15,2013-03-06 09:46:00,
2013-03-06 04:56:00,31.2,28.9,30.09,East,99,8.0,9.0,91,0.00,,,0.00,Wunderground v.1.15,2013-03-06 09:56:00,
2013-03-06 05:06:00,31.3,28.7,30.08,East,98,10.0,10.0,90,0.00,,,0.00,Wunderground v.1.15,2013-03-06 10:06:00,
2013-03-06 05:16:00,31.3,28.7,30.09,East,100,8.0,12.0,90,0.00,,,0.00,Wunderground v.1.15,2013-03-06 10:16:00,
2013-03-06 05:36:00,31.5,28.4,30.10,East,87,11.0,15.0,88,0.00,,,0.00,Wunderground v.1.15,2013-03-06 10:36:00,
2013-03-06 05:46:00,31.5,28.4,30.10,ESE,105,11.0,11.0,88,0.00,,,0.00,Wunderground v.1.15,2013-03-06 10:46:00,
2013-03-06 06:06:00,31.3,28.2,30.10,East,95,12.0,12.0,88,0.00,,,0.00,Wunderground v.1.15,2013-03-06 11:06:00,
2013-03-06 06:16:00,31.2,28.1,30.10,ESE,103,12.0,13.0,88,0.00,,,0.00,Wunderground v.1.15,2013-03-06 11:16:00,
2013-03-06 06:36:00,30.7,28.1,30.11,SE,145,10.0,10.0,90,0.00,,,0.00,Wunderground v.1.15,2013-03-06 11:36:00,
2013-03-06 06:46:00,30.6,28.3,30.11,ESE,102,10.0,10.0,91,0.00,,,0.00,Wunderground v.1.15,2013-03-06 11:46:00,
2013-03-06 07:16:00,30.7,27.8,30.12,East,99,11.0,11.0,89,0.00,,,0.00,Wunderground v.1.15,2013-03-06 12:16:00,
2013-03-06 07:26:00,30.6,27.7,30.12,ESE,112,8.0,13.0,89,0.00,,,0.00,Wunderground v.1.15,2013-03-06 12:26:00,
2013-03-06 07:56:00,30.6,27.2,30.14,East,97,10.0,13.0,87,0.00,,,0.00,Wunderground v.1.15,2013-03-06 12:56:00,
2013-03-06 08:36:00,30.9,26.6,30.15,East,98,9.0,9.0,84,0.00,,,0.00,Wunderground v.1.15,2013-03-06 13:36:00,
2013-03-06 08:46:00,31.0,26.1,30.15,East,100,13.0,13.0,82,0.00,,,0.00,Wunderground v.1.15,2013-03-06 13:46:00,
2013-03-06 09:16:00,31.5,25.1,30.15,ESE,107,11.0,11.0,77,0.00,,,0.00,Wunderground v.1.15,2013-03-06 14:16:00,
2013-03-06 09:26:00,31.6,24.6,30.15,ESE,103,11.0,14.0,75,0.00,,,0.00,Wunderground v.1.15,2013-03-06 14:26:00,
2013-03-06 09:36:00,31.3,24.9,30.16,East,80,10.0,11.0,77,0.00,,,0.00,Wunderground v.1.15,2013-03-06 14:36:00,
2013-03-06 10:06:00,31.2,24.8,30.16,ENE,58,9.0,13.0,77,0.00,,,0.00,Wunderground v.1.15,2013-03-06 15:06:00,
2013-03-06 10:16:00,31.0,24.3,30.17,East,95,9.0,9.0,76,0.00,,,0.00,Wunderground v.1.15,2013-03-06 15:16:00,
2013-03-06 10:36:00,30.7,24.7,30.17,ESE,121,10.0,14.0,78,0.00,,,0.00,Wunderground v.1.15,2013-03-06 15:36:00,
2013-03-06 10:46:00,30.6,24.9,30.18,East,101,9.0,9.0,79,0.00,,,0.00,Wunderground v.1.15,2013-03-06 15:46:00,
2013-03-06 10:56:00,30.6,23.9,30.18,East,95,10.0,10.0,76,0.00,,,0.00,Wunderground v.1.15,2013-03-06 15:56:00,
2013-03-06 11:16:00,31.0,24.0,30.17,East,90,9.0,9.0,75,0.00,,,0.00,Wunderground v.1.15,2013-03-06 16:16:00,
2013-03-06 11:26:00,31.0,23.7,30.17,East,94,11.0,11.0,74,0.00,,,0.00,Wunderground v.1.15,2013-03-06 16:26:00,
2013-03-06 11:56:00,32.2,23.5,30.16,ESE,104,9.0,10.0,70,0.00,,,0.00,Wunderground v.1.15,2013-03-06 16:56:00,
2013-03-06 12:36:00,31.6,25.5,30.15,SE,125,7.0,8.0,78,0.00,,,0.00,Wunderground v.1.15,2013-03-06 17:36:00,
2013-03-06 12:46:00,31.9,26.1,30.15,ESE,107,6.0,6.0,79,0.00,,,0.00,Wunderground v.1.15,2013-03-06 17:46:00,
2013-03-06 13:06:00,31.9,26.4,30.14,East,100,10.0,10.0,80,0.00,,,0.00,Wunderground v.1.15,2013-03-06 18:06:00,
2013-03-06 13:16:00,32.2,26.1,30.14,ESE,114,10.0,11.0,78,0.00,,,0.00,Wunderground v.1.15,2013-03-06 18:16:00,
2013-03-06 13:26:00,32.5,26.4,30.14,ENE,63,10.0,10.0,78,0.00,,,0.00,Wunderground v.1.15,2013-03-06 18:26:00,
2013-03-06 13:36:00,32.2,26.4,30.13,East,99,10.0,11.0,79,0.00,,,0.00,Wunderground v.1.15,2013-03-06 18:36:00,
2013-03-06 13:46:00,32.5,26.7,30.14,ENE,58,8.0,8.0,79,0.00,,,0.00,Wunderground v.1.15,2013-03-06 18:46:00,
2013-03-06 13:56:00,32.1,26.3,30.14,ESE,107,10.0,17.0,79,0.00,,,0.00,Wunderground v.1.15,2013-03-06 18:56:00,
2013-03-06 14:06:00,32.1,26.3,30.13,ESE,113,10.0,11.0,79,0.00,,,0.00,Wunderground v.1.15,2013-03-06 19:06:00,
2013-03-06 14:16:00,32.7,25.6,30.13,ENE,78,8.0,10.0,75,0.00,,,0.00,Wunderground v.1.15,2013-03-06 19:16:00,
2013-03-06 14:36:00,32.4,25.4,30.13,ESE,102,11.0,12.0,75,0.00,,,0.00,Wunderground v.1.15,2013-03-06 19:36:00,
2013-03-06 14:46:00,32.7,25.6,30.14,ENE,71,8.0,8.0,75,0.00,,,0.00,Wunderground v.1.15,2013-03-06 19:46:00,
2013-03-06 14:56:00,32.8,25.7,30.14,East,81,8.0,8.0,75,0.00,,,0.00,Wunderground v.1.15,2013-03-06 19:56:00,
2013-03-06 15:56:00,30.6,27.7,30.16,ESE,110,5.0,8.0,89,0.00,,,0.00,Wunderground v.1.15,2013-03-06 20:56:00,
2013-03-06 16:16:00,30.9,27.2,30.15,SSE,153,3.0,5.0,86,0.00,,,0.00,Wunderground v.1.15,2013-03-06 21:16:00,
2013-03-06 16:26:00,31.0,27.0,30.15,SE,132,2.0,3.0,85,0.00,,,0.00,Wunderground v.1.15,2013-03-06 21:26:00,
2013-03-06 17:06:00,31.0,26.1,30.16,East,84,9.0,9.0,82,0.00,,,0.00,Wunderground v.1.15,2013-03-06 22:06:00,
2013-03-06 17:16:00,30.6,26.6,30.16,SE,125,6.0,8.0,85,0.00,,,0.00,Wunderground v.1.15,2013-03-06 22:16:00,
2013-03-06 17:26:00,30.6,26.3,30.16,ESE,121,7.0,7.0,84,0.00,,,0.00,Wunderground v.1.15,2013-03-06 22:26:00,
2013-03-06 18:06:00,30.1,25.0,30.19,ESE,110,9.0,9.0,81,0.00,,,0.00,Wunderground v.1.15,2013-03-06 23:06:00,
2013-03-06 18:16:00,29.8,25.3,30.19,East,95,7.0,11.0,83,0.00,,,0.00,Wunderground v.1.15,2013-03-06 23:16:00,
2013-03-06 18:36:00,29.7,25.2,30.18,ENE,65,9.0,9.0,83,0.00,,,0.00,Wunderground v.1.15,2013-03-06 23:36:00,
2013-03-06 18:46:00,29.4,25.2,30.19,East,85,9.0,9.0,84,0.00,,,0.00,Wunderground v.1.15,2013-03-06 23:46:00,
2013-03-06 18:56:00,29.5,24.1,30.19,ESE,111,9.0,11.0,80,0.00,,,0.00,Wunderground v.1.15,2013-03-06 23:56:00,
2013-03-06 19:36:00,29.5,24.1,30.19,ESE,120,10.0,10.0,80,0.00,,,0.00,Wunderground v.1.15,2013-03-07 00:36:00,
2013-03-06 19:46:00,29.4,23.7,30.19,East,79,9.0,9.0,79,0.00,,,0.00,Wunderground v.1.15,2013-03-07 00:46:00,
2013-03-06 20:06:00,29.3,23.9,30.19,East,92,9.0,9.0,80,0.00,,,0.00,Wunderground v.1.15,2013-03-07 01:06:00,
2013-03-06 20:16:00,29.0,23.9,30.19,East,90,8.0,8.0,81,0.00,,,0.00,Wunderground v.1.15,2013-03-07 01:16:00,
2013-03-06 20:26:00,29.0,23.6,30.19,ESE,113,8.0,13.0,80,0.00,,,0.00,Wunderground v.1.15,2013-03-07 01:26:00,
2013-03-06 20:56:00,28.7,23.0,30.19,East,92,10.0,10.0,79,0.00,,,0.00,Wunderground v.1.15,2013-03-07 01:56:00,
2013-03-06 21:26:00,29.0,21.4,30.17,ENE,59,11.0,11.0,73,0.00,,,0.00,Wunderground v.1.15,2013-03-07 02:26:00,
2013-03-06 21:36:00,29.0,21.7,30.17,ESE,103,10.0,10.0,74,0.00,,,0.00,Wunderground v.1.15,2013-03-07 02:36:00,
2013-03-06 21:46:00,28.8,21.9,30.17,East,85,11.0,17.0,75,0.00,,,0.00,Wunderground v.1.15,2013-03-07 02:46:00,
2013-03-06 22:06:00,28.7,21.8,30.17,ESE,107,10.0,10.0,75,0.00,,,0.00,Wunderground v.1.15,2013-03-07 03:06:00,
2013-03-06 22:16:00,28.5,21.9,30.17,ESE,112,10.0,11.0,76,0.00,,,0.00,Wunderground v.1.15,2013-03-07 03:16:00,
2013-03-06 22:26:00,28.5,21.6,30.17,ESE,105,8.0,9.0,75,0.00,,,0.00,Wunderground v.1.15,2013-03-07 03:26:00,
2013-03-06 22:36:00,28.5,21.6,30.16,ESE,119,12.0,12.0,75,0.00,,,0.00,Wunderground v.1.15,2013-03-07 03:36:00,
2013-03-06 23:06:00,28.1,22.1,30.17,East,95,11.0,13.0,78,0.00,,,0.00,Wunderground v.1.15,2013-03-07 04:06:00,
2013-03-06 23:16:00,28.1,22.1,30.16,ENE,74,10.0,11.0,78,0.00,,,0.00,Wunderground v.1.15,2013-03-07 04:16:00,
2013-03-06 23:26:00,27.9,22.5,30.16,East,98,9.0,13.0,80,0.00,,,0.00,Wunderground v.1.15,2013-03-07 04:26:00,